Time;durP1;ratioP1;P1;durP2;ratioP2;P2;SDS_P1;SDS_P2;PMS_P1;PMS_P2;Temp;Humidity;BMP_temperature;BMP_pressure;BME280_temperature;BME280_humidity;BME280_pressure;Samples;Min_cycle;Max_cycle;Signal;HPM_P1;HPM_P2
2021/03/07 00:04:13;;;;;;;14.85;6.95;;;-3.50;81.90;;;;;;4881154;29;20100;-89
2021/03/07 00:10:05;;;;;;;10.48;5.50;;;-3.60;81.90;;;;;;4880737;29;20124;-88
2021/03/07 00:15:54;;;;;;;17.05;6.43;;;-3.70;82.00;;;;;;4880700;29;20068;-89
2021/03/07 00:25:37;;;;;;;15.45;6.60;;;-3.80;81.90;;;;;;4880690;29;20040;-89
2021/03/07 00:31:25;;;;;;;13.90;6.15;;;-3.80;82.00;;;;;;4880847;29;20068;-90
2021/03/07 00:37:14;;;;;;;19.55;8.50;;;-3.90;82.00;;;;;;4880908;29;20065;-89
2021/03/07 00:43:02;;;;;;;12.65;6.18;;;-4.00;81.90;;;;;;4880520;29;20097;-89
2021/03/07 00:48:50;;;;;;;13.85;6.40;;;-4.00;82.00;;;;;;4880731;29;20525;-90
2021/03/07 00:54:38;;;;;;;12.63;6.05;;;-4.10;81.90;;;;;;4880380;29;20061;-88
2021/03/07 01:00:30;;;;;;;12.95;5.95;;;-4.10;82.10;;;;;;4880383;29;20080;-88
2021/03/07 01:06:18;;;;;;;14.93;5.55;;;-4.20;82.10;;;;;;4884551;29;20056;-87
2021/03/07 01:12:06;;;;;;;15.07;6.47;;;-4.20;82.00;;;;;;4883728;29;20048;-87
2021/03/07 01:17:56;;;;;;;15.52;6.10;;;-4.30;82.10;;;;;;4884591;29;20055;-88
2021/03/07 01:27:39;;;;;;;15.68;6.70;;;-4.30;82.20;;;;;;4884864;29;20113;-90
2021/03/07 01:33:28;;;;;;;12.93;5.80;;;-4.40;82.00;;;;;;4884581;29;20102;-89
2021/03/07 01:39:16;;;;;;;12.73;6.20;;;-4.50;82.10;;;;;;4883975;29;20496;-92
2021/03/07 01:45:06;;;;;;;16.08;7.32;;;-4.60;82.00;;;;;;4884007;29;20124;-90
2021/03/07 01:50:54;;;;;;;15.07;6.53;;;-4.60;82.00;;;;;;4884658;29;20072;-92
2021/03/07 01:56:44;;;;;;;13.50;6.85;;;-4.70;82.10;;;;;;4883751;29;20061;-90
2021/03/07 02:02:32;;;;;;;13.35;6.68;;;-4.70;82.00;;;;;;4883689;29;20100;-89
2021/03/07 02:08:22;;;;;;;11.88;5.35;;;-4.80;82.10;;;;;;4884011;29;20421;-90
2021/03/07 02:14:10;;;;;;;14.00;6.43;;;-4.80;82.10;;;;;;4883000;29;20049;-89
2021/03/07 02:20:00;;;;;;;12.35;5.18;;;-4.90;82.20;;;;;;4883027;29;20120;-90
2021/03/07 02:29:46;;;;;;;13.35;6.13;;;-4.90;82.10;;;;;;4882797;29;20504;-89
2021/03/07 02:35:37;;;;;;;13.65;5.22;;;-5.00;82.20;;;;;;4883477;29;20036;-89
2021/03/07 02:41:29;;;;;;;15.60;6.25;;;-5.00;82.40;;;;;;4882304;29;20036;-89
2021/03/07 02:47:19;;;;;;;12.65;5.55;;;-5.00;82.10;;;;;;4882308;29;20087;-89
2021/03/07 02:53:11;;;;;;;14.32;5.47;;;-5.10;82.10;;;;;;4882531;29;20044;-90
2021/03/07 02:59:06;;;;;;;13.75;5.40;;;-5.10;82.00;;;;;;4882262;29;20063;-87
2021/03/07 03:04:57;;;;;;;12.05;5.18;;;-5.20;82.20;;;;;;4881725;29;20081;-87
2021/03/07 03:10:48;;;;;;;11.63;5.22;;;-5.20;82.20;;;;;;4882052;29;20116;-91
2021/03/07 03:16:37;;;;;;;13.65;5.32;;;-5.20;82.40;;;;;;4882842;29;20066;-91
2021/03/07 03:22:27;;;;;;;11.27;4.50;;;-5.20;82.30;;;;;;4882379;29;20437;-91
2021/03/07 03:32:19;;;;;;;13.98;5.45;;;-5.20;82.20;;;;;;4882391;29;20064;-90
2021/03/07 03:38:07;;;;;;;13.55;5.57;;;-5.30;82.30;;;;;;4881653;29;20036;-90
2021/03/07 03:43:58;;;;;;;13.30;4.90;;;-5.30;82.10;;;;;;4881393;29;20104;-90
2021/03/07 03:49:54;;;;;;;11.85;4.63;;;-5.40;82.20;;;;;;4881445;29;20450;-91
2021/03/07 03:55:47;;;;;;;9.65;4.57;;;-5.40;82.10;;;;;;4881132;29;20040;-88
2021/03/07 04:01:37;;;;;;;11.32;5.32;;;-5.50;82.10;;;;;;4881080;29;20049;-89
2021/03/07 04:07:27;;;;;;;13.38;4.82;;;-5.50;82.20;;;;;;4880694;29;20052;-89
2021/03/07 04:13:20;;;;;;;11.95;5.00;;;-5.60;82.10;;;;;;4880762;29;20125;-90
2021/03/07 04:19:08;;;;;;;11.68;5.15;;;-5.60;82.10;;;;;;4880694;29;20550;-87
2021/03/07 04:24:58;;;;;;;11.70;4.90;;;-5.70;82.20;;;;;;4880589;29;20466;-88
2021/03/07 04:34:48;;;;;;;14.18;5.55;;;-5.70;82.20;;;;;;4880517;29;20446;-88
2021/03/07 04:40:38;;;;;;;10.38;4.85;;;-5.70;82.30;;;;;;4880344;29;20085;-87
2021/03/07 04:46:27;;;;;;;13.20;6.15;;;-5.70;82.30;;;;;;4880148;29;20080;-87
2021/03/07 04:52:16;;;;;;;12.52;4.65;;;-5.80;82.10;;;;;;4880352;29;20067;-87
2021/03/07 04:58:05;;;;;;;13.73;5.78;;;-5.90;82.00;;;;;;4880645;29;20040;-88
2021/03/07 05:03:53;;;;;;;10.43;5.07;;;-5.90;82.10;;;;;;4880705;29;20027;-85
2021/03/07 05:09:41;;;;;;;14.43;5.25;;;-5.90;82.20;;;;;;4880572;29;20075;-90
2021/03/07 05:15:30;;;;;;;8.75;4.13;;;-5.90;82.20;;;;;;4880730;29;20052;-90
2021/03/07 05:21:18;;;;;;;9.68;3.72;;;-6.00;82.00;;;;;;4881671;29;20035;-90
2021/03/07 05:27:06;;;;;;;10.95;4.55;;;-6.00;82.10;;;;;;4880056;29;20051;-90
2021/03/07 05:36:48;;;;;;;9.35;4.72;;;-6.10;82.30;;;;;;4880935;29;20043;-89
2021/03/07 05:42:37;;;;;;;8.45;4.13;;;-6.00;82.40;;;;;;4880709;29;20031;-90
2021/03/07 05:48:29;;;;;;;11.70;4.82;;;-6.10;82.30;;;;;;4880392;29;20051;-92
2021/03/07 05:54:17;;;;;;;10.65;4.65;;;-6.00;82.40;;;;;;4880532;29;20036;-91
2021/03/07 06:00:06;;;;;;;11.60;4.35;;;-6.00;82.40;;;;;;4890691;29;20517;-91
2021/03/07 06:05:54;;;;;;;14.15;4.55;;;-6.00;82.50;;;;;;4884129;29;20516;-90
2021/03/07 06:11:42;;;;;;;11.13;4.72;;;-6.00;82.50;;;;;;4883494;29;20076;-90
2021/03/07 06:17:45;;;;;;;14.63;4.50;;;-5.90;82.70;;;;;;4883236;29;20562;-90
2021/03/07 06:23:36;;;;;;;10.05;4.35;;;-5.80;82.80;;;;;;4883295;29;20048;-91
2021/03/07 06:29:25;;;;;;;10.88;4.20;;;-5.70;83.10;;;;;;4883641;29;20040;-94
2021/03/07 06:39:15;;;;;;;12.35;5.28;;;-5.50;83.40;;;;;;4882497;29;20171;-89
2021/03/07 06:45:04;;;;;;;10.32;4.43;;;-5.40;83.30;;;;;;4882036;29;20053;-89
2021/03/07 06:50:56;;;;;;;8.88;4.20;;;-5.30;83.30;;;;;;4882112;29;20056;-85
2021/03/07 06:56:51;;;;;;;12.48;5.25;;;-5.20;83.50;;;;;;4882000;29;20488;-86
2021/03/07 07:02:40;;;;;;;11.88;4.82;;;-5.10;83.60;;;;;;4881767;29;20032;-86
2021/03/07 07:08:59;;;;;;;10.23;4.82;;;-4.90;83.70;;;;;;4880428;29;20124;-86
2021/03/07 07:14:49;;;;;;;9.95;4.32;;;-4.80;83.80;;;;;;4881533;29;20058;-85
2021/03/07 07:20:37;;;;;;;10.55;4.38;;;-4.60;83.90;;;;;;4881599;29;20070;-85
2021/03/07 07:26:27;;;;;;;10.48;4.57;;;-4.40;83.90;;;;;;4881401;29;20132;-85
2021/03/07 07:32:40;;;;;;;11.52;5.03;;;-4.30;84.10;;;;;;4882067;29;20048;-87
2021/03/07 07:42:35;;;;;;;11.13;5.22;;;-4.00;84.20;;;;;;4883236;29;20107;-86
2021/03/07 07:48:34;;;;;;;10.32;4.80;;;-3.80;84.50;;;;;;4881982;29;20064;-86
2021/03/07 07:54:54;;;;;;;11.35;5.22;;;-3.50;84.80;;;;;;4881015;29;20386;-85
2021/03/07 08:00:50;;;;;;;10.13;4.47;;;-3.30;84.90;;;;;;4880697;29;20390;-86
2021/03/07 08:06:43;;;;;;;10.52;4.60;;;-3.00;85.10;;;;;;4880762;29;20100;-86
2021/03/07 08:12:43;;;;;;;11.10;4.55;;;-2.80;85.00;;;;;;4880726;29;20063;-83
2021/03/07 08:18:51;;;;;;;15.52;5.45;;;-2.50;86.00;;;;;;4880774;29;20049;-87
2021/03/07 08:24:53;;;;;;;15.10;5.70;;;-2.10;86.00;;;;;;4881737;29;20048;-90
2021/03/07 08:30:42;;;;;;;10.85;4.97;;;-1.70;86.20;;;;;;4882886;29;20081;-87
2021/03/07 08:36:30;;;;;;;10.82;4.75;;;-1.40;85.90;;;;;;4880486;29;20056;-87
2021/03/07 08:42:28;;;;;;;12.55;5.82;;;-1.10;86.40;;;;;;4880547;29;20047;-87
2021/03/07 08:48:24;;;;;;;10.70;4.80;;;-0.80;85.90;;;;;;4879909;29;20516;-86
2021/03/07 08:54:20;;;;;;;6.97;3.65;;;-0.50;86.20;;;;;;4880622;29;20063;-87
2021/03/07 09:00:08;;;;;;;10.50;3.97;;;-0.20;86.40;;;;;;4881644;29;20036;-86
2021/03/07 09:05:57;;;;;;;9.40;4.40;;;-0.10;86.00;;;;;;4880409;29;20044;-86
2021/03/07 09:11:49;;;;;;;9.13;4.35;;;0.20;86.10;;;;;;4880615;29;20044;-87
2021/03/07 09:17:39;;;;;;;9.05;3.53;;;0.50;86.70;;;;;;4882109;29;20063;-85
2021/03/07 09:23:38;;;;;;;7.18;3.33;;;0.80;86.60;;;;;;4879921;29;20439;-85
2021/03/07 09:29:28;;;;;;;9.02;3.85;;;1.10;87.10;;;;;;4879691;29;20048;-85
2021/03/07 09:35:21;;;;;;;9.00;3.60;;;1.40;86.80;;;;;;4883244;29;20036;-85
2021/03/07 09:45:12;;;;;;;7.55;3.28;;;2.00;87.30;;;;;;4883324;29;20172;-86
2021/03/07 09:51:05;;;;;;;12.80;4.00;;;2.50;88.20;;;;;;4883190;29;20092;-86
2021/03/07 09:56:55;;;;;;;10.10;3.47;;;2.90;87.50;;;;;;4882655;29;20040;-87
2021/03/07 10:02:44;;;;;;;10.82;3.72;;;3.30;87.50;;;;;;4882975;29;20085;-86
2021/03/07 10:08:34;;;;;;;8.80;3.40;;;3.60;87.70;;;;;;4882645;29;20080;-87
2021/03/07 10:14:33;;;;;;;8.93;3.92;;;4.20;88.10;;;;;;4882813;29;20044;-87
2021/03/07 10:20:22;;;;;;;8.43;3.60;;;4.70;88.20;;;;;;4882541;29;20165;-87
2021/03/07 10:26:10;;;;;;;7.07;3.00;;;5.30;88.30;;;;;;4882405;29;20120;-88
2021/03/07 10:32:02;;;;;;;7.93;3.45;;;5.90;88.70;;;;;;4882159;29;20549;-86
2021/03/07 10:37:51;;;;;;;8.20;3.38;;;6.80;90.20;;;;;;4881992;29;20044;-88
2021/03/07 10:47:44;;;;;;;6.80;3.13;;;8.80;91.90;;;;;;4882054;29;20144;-87
2021/03/07 10:53:33;;;;;;;8.00;3.40;;;10.00;91.40;;;;;;4882448;29;20089;-87
2021/03/07 10:59:21;;;;;;;8.80;3.90;;;11.00;92.40;;;;;;4882360;29;20063;-88
2021/03/07 11:05:11;;;;;;;8.25;3.80;;;12.10;91.60;;;;;;4881850;29;20043;-88
2021/03/07 11:11:00;;;;;;;8.15;3.58;;;13.00;91.50;;;;;;4881395;29;20081;-88
2021/03/07 11:16:49;;;;;;;7.65;3.45;;;13.80;91.30;;;;;;4881533;29;20043;-86
2021/03/07 11:22:38;;;;;;;7.22;3.42;;;14.50;91.00;;;;;;4881714;29;20081;-86
2021/03/07 11:28:27;;;;;;;10.55;4.10;;;15.20;91.00;;;;;;4881091;29;20096;-87
2021/03/07 11:34:15;;;;;;;7.75;3.92;;;15.70;90.40;;;;;;4880911;29;20116;-86
2021/03/07 11:40:04;;;;;;;9.15;3.33;;;16.80;91.20;;;;;;4881718;29;20040;-86
2021/03/07 11:49:47;;;;;;;9.45;4.57;;;17.40;89.10;;;;;;4880753;29;20484;-87
2021/03/07 11:55:36;;;;;;;6.75;3.17;;;17.60;88.90;;;;;;4880010;29;20081;-86
2021/03/07 12:01:25;;;;;;;6.30;3.17;;;17.80;88.00;;;;;;4880878;29;20485;-87
2021/03/07 12:07:14;;;;;;;6.95;2.92;;;18.20;88.40;;;;;;4881003;29;20450;-87
2021/03/07 12:13:02;;;;;;;6.20;3.00;;;18.40;89.60;;;;;;4881915;29;20040;-88
2021/03/07 12:18:50;;;;;;;6.18;3.08;;;18.30;87.10;;;;;;4880465;29;20117;-85
2021/03/07 12:24:39;;;;;;;7.05;3.10;;;18.60;90.10;;;;;;4880691;29;20414;-88
2021/03/07 12:30:28;;;;;;;6.43;2.95;;;18.50;86.40;;;;;;4880536;29;20055;-88
2021/03/07 12:36:16;;;;;;;7.75;3.40;;;18.60;86.80;;;;;;4880180;29;20048;-88
2021/03/07 12:42:05;;;;;;;6.57;3.00;;;19.30;88.50;;;;;;4880150;29;20628;-88
2021/03/07 12:51:48;;;;;;;6.32;3.00;;;20.70;89.40;;;;;;4880271;29;20441;-88
2021/03/07 12:57:36;;;;;;;6.95;3.10;;;21.10;88.90;;;;;;4880300;29;20096;-88
2021/03/07 13:03:25;;;;;;;5.90;2.60;;;21.50;85.90;;;;;;4862053;29;20028;-88
2021/03/07 13:09:16;;;;;;;5.90;2.85;;;21.10;87.00;;;;;;4866696;29;20049;-88
2021/03/07 13:15:06;;;;;;;5.55;2.88;;;20.90;84.60;;;;;;4865036;29;20078;-87
2021/03/07 13:20:56;;;;;;;6.53;2.85;;;20.60;82.20;;;;;;4866181;29;20040;-87
2021/03/07 13:26:45;;;;;;;5.45;2.60;;;20.80;86.40;;;;;;4865081;29;20089;-87
2021/03/07 13:32:34;;;;;;;6.15;2.80;;;20.90;86.20;;;;;;4865170;29;20047;-89
2021/03/07 13:38:23;;;;;;;7.57;3.50;;;21.20;84.60;;;;;;4865163;29;20432;-88
2021/03/07 13:44:11;;;;;;;5.53;2.60;;;21.50;84.80;;;;;;4865198;29;20527;-88
2021/03/07 13:53:54;;;;;;;6.72;2.88;;;20.90;85.30;;;;;;4864893;29;20053;-88
2021/03/07 13:59:42;;;;;;;5.55;2.72;;;21.00;82.50;;;;;;4864583;29;20071;-85
2021/03/07 14:05:30;;;;;;;6.43;2.80;;;21.40;84.60;;;;;;4864698;29;20173;-88
2021/03/07 14:11:18;;;;;;;6.32;3.08;;;22.10;84.70;;;;;;4863979;29;20432;-88
2021/03/07 14:17:07;;;;;;;6.55;3.00;;;22.10;81.80;;;;;;4863782;29;20052;-87
2021/03/07 14:22:55;;;;;;;5.78;3.00;;;22.30;84.60;;;;;;4864190;29;20594;-88
2021/03/07 14:28:44;;;;;;;6.40;2.60;;;22.50;82.20;;;;;;4863792;29;20188;-89
2021/03/07 14:34:32;;;;;;;6.82;3.35;;;22.50;81.40;;;;;;4864026;29;20402;-89
2021/03/07 14:40:21;;;;;;;6.10;2.50;;;22.80;82.60;;;;;;4863540;29;20450;-89
2021/03/07 14:46:09;;;;;;;6.93;2.72;;;22.40;80.40;;;;;;4863724;29;20085;-89
2021/03/07 14:55:52;;;;;;;6.60;3.13;;;22.50;81.40;;;;;;4882230;29;20095;-88
2021/03/07 15:01:41;;;;;;;7.65;3.55;;;22.10;79.20;;;;;;4881670;29;20068;-89
2021/03/07 15:07:30;;;;;;;12.85;8.35;;;21.60;80.90;;;;;;4881873;29;20105;-87
2021/03/07 15:13:20;;;;;;;9.05;3.53;;;21.30;79.20;;;;;;4883667;29;20496;-89
2021/03/07 15:19:09;;;;;;;7.10;3.65;;;21.40;80.00;;;;;;4881767;29;20411;-89
2021/03/07 15:24:57;;;;;;;7.63;3.45;;;21.00;79.70;;;;;;4881340;29;20093;-88
2021/03/07 15:30:46;;;;;;;7.65;3.08;;;21.30;82.50;;;;;;4880406;29;20057;-88
2021/03/07 15:36:34;;;;;;;7.97;3.47;;;21.20;79.00;;;;;;4881092;29;20028;-88
2021/03/07 15:42:26;;;;;;;7.78;3.35;;;20.70;78.40;;;;;;4881454;29;20036;-88
2021/03/07 15:48:16;;;;;;;8.15;3.33;;;20.10;77.70;;;;;;4883614;29;20092;-88
2021/03/07 15:57:59;;;;;;;7.75;3.20;;;19.80;79.00;;;;;;4881077;29;20148;-87
2021/03/07 16:03:56;;;;;;;7.70;3.65;;;19.50;77.40;;;;;;4880829;29;20176;-88
2021/03/07 16:09:45;;;;;;;9.35;4.78;;;19.00;77.80;;;;;;4880809;29;20059;-89
2021/03/07 16:15:33;;;;;;;8.55;4.10;;;18.40;78.10;;;;;;4880779;29;20032;-88
2021/03/07 16:21:23;;;;;;;8.25;3.70;;;18.10;78.10;;;;;;4880658;29;20508;-88
2021/03/07 16:27:11;;;;;;;10.20;5.38;;;17.10;75.30;;;;;;4880399;29;20418;-88
2021/03/07 16:32:58;;;;;;;8.52;3.83;;;15.80;75.40;;;;;;4880452;29;20500;-88
2021/03/07 16:38:47;;;;;;;13.43;5.82;;;14.50;75.90;;;;;;4880400;29;20047;-89
2021/03/07 16:44:36;;;;;;;12.10;7.15;;;13.30;76.50;;;;;;4880227;29;20129;-89
2021/03/07 16:50:24;;;;;;;8.85;4.05;;;12.50;77.00;;;;;;4880205;29;20544;-87
2021/03/07 17:00:08;;;;;;;10.85;5.50;;;11.60;78.30;;;;;;4880786;29;20069;-86
2021/03/07 17:05:57;;;;;;;11.07;5.20;;;11.00;77.60;;;;;;4881382;29;20036;-87
2021/03/07 17:11:45;;;;;;;12.00;5.50;;;10.50;77.90;;;;;;4880053;29;20039;-88
2021/03/07 17:17:34;;;;;;;12.25;5.30;;;9.90;77.80;;;;;;4879943;29;20140;-87
2021/03/07 17:23:23;;;;;;;9.30;4.50;;;9.30;77.10;;;;;;4879851;29;20089;-88
2021/03/07 17:29:11;;;;;;;9.02;4.20;;;8.70;77.60;;;;;;4879550;29;20615;-88
2021/03/07 17:34:59;;;;;;;11.23;4.80;;;8.30;77.80;;;;;;4879537;29;20386;-86
2021/03/07 17:40:48;;;;;;;10.77;4.53;;;8.00;78.40;;;;;;4879651;29;20028;-86
2021/03/07 17:46:36;;;;;;;9.63;4.20;;;7.50;78.10;;;;;;4879495;29;20047;-87
2021/03/07 17:52:25;;;;;;;11.15;4.97;;;7.30;78.70;;;;;;4880982;29;20168;-89
2021/03/07 18:02:09;;;;;;;12.02;5.57;;;6.70;78.40;;;;;;4883363;29;20048;-89
2021/03/07 18:07:57;;;;;;;13.15;6.85;;;6.40;78.40;;;;;;4883914;29;20052;-89
2021/03/07 18:13:45;;;;;;;13.77;6.60;;;6.10;78.80;;;;;;4902681;29;20051;-88
2021/03/07 18:19:34;;;;;;;13.38;7.10;;;5.90;78.90;;;;;;4883363;29;20436;-90
2021/03/07 18:25:22;;;;;;;15.88;7.13;;;5.50;78.40;;;;;;4885183;29;20101;-90
2021/03/07 18:31:11;;;;;;;18.42;8.35;;;5.30;78.80;;;;;;4883436;29;20096;-88
2021/03/07 18:36:59;;;;;;;18.90;9.13;;;5.10;78.90;;;;;;4883899;29;20173;-90
2021/03/07 18:42:48;;;;;;;26.92;10.40;;;4.80;78.50;;;;;;4883999;29;20028;-91
2021/03/07 18:48:36;;;;;;;25.17;10.27;;;4.60;78.70;;;;;;4883695;29;20048;-91
2021/03/07 18:54:25;;;;;;;14.00;6.18;;;4.40;78.70;;;;;;4885331;29;20065;-93
2021/03/07 19:04:08;;;;;;;14.98;6.60;;;3.90;78.30;;;;;;4883520;29;20067;-93
2021/03/07 19:09:57;;;;;;;11.88;6.03;;;3.60;78.70;;;;;;4884652;29;20463;-92
2021/03/07 19:15:46;;;;;;;13.75;6.03;;;3.40;78.70;;;;;;4883394;29;20056;-93
2021/03/07 19:21:35;;;;;;;13.40;6.43;;;3.20;78.90;;;;;;4883643;29;20494;-93
2021/03/07 19:27:24;;;;;;;14.07;6.70;;;3.00;78.80;;;;;;4884599;29;20048;-94
2021/03/07 19:33:13;;;;;;;13.10;6.15;;;2.80;78.90;;;;;;4884868;29;20414;-92
2021/03/07 19:39:03;;;;;;;10.80;5.40;;;2.80;79.20;;;;;;4881530;29;20092;-89
2021/03/07 19:44:52;;;;;;;12.07;5.47;;;2.60;78.80;;;;;;4881011;29;20164;-89
2021/03/07 19:50:41;;;;;;;16.15;6.70;;;2.40;79.00;;;;;;4881524;29;20048;-89
2021/03/07 19:56:29;;;;;;;11.63;5.28;;;2.20;78.70;;;;;;4881384;29;20052;-90
2021/03/07 20:06:13;;;;;;;11.95;5.38;;;1.90;78.80;;;;;;4881722;29;20056;-90
2021/03/07 20:12:02;;;;;;;15.30;6.65;;;1.80;78.90;;;;;;4881215;29;20044;-89
2021/03/07 20:17:50;;;;;;;13.45;5.63;;;1.60;78.90;;;;;;4880704;29;20073;-89
2021/03/07 20:23:38;;;;;;;12.35;6.38;;;1.50;79.00;;;;;;4880754;29;20044;-90
2021/03/07 20:29:28;;;;;;;15.48;6.57;;;1.30;78.80;;;;;;4881259;29;20519;-92
2021/03/07 20:35:16;;;;;;;14.23;5.80;;;1.10;78.50;;;;;;4884597;29;20065;-91
2021/03/07 20:41:05;;;;;;;17.77;6.18;;;1.00;78.50;;;;;;4887057;29;20097;-90
2021/03/07 20:46:55;;;;;;;13.73;5.72;;;0.80;78.60;;;;;;4881067;29;20170;-92
2021/03/07 20:52:44;;;;;;;14.27;6.57;;;0.60;78.60;;;;;;4881183;29;20036;-89
2021/03/07 20:58:32;;;;;;;12.65;6.15;;;0.50;78.60;;;;;;4880652;29;20044;-90
2021/03/07 21:08:14;;;;;;;13.23;6.05;;;0.30;78.50;;;;;;4881182;29;20052;-93
2021/03/07 21:14:02;;;;;;;12.40;5.32;;;0.10;78.70;;;;;;4882310;29;20089;-91
2021/03/07 21:19:51;;;;;;;15.30;6.45;;;0.00;78.50;;;;;;4880013;29;20051;-83
2021/03/07 21:25:40;;;;;;;14.50;6.68;;;-0.20;78.60;;;;;;4879928;29;20064;-84
2021/03/07 21:31:29;;;;;;;14.32;6.85;;;-0.30;78.60;;;;;;4883684;29;20044;-86
2021/03/07 21:37:17;;;;;;;14.57;6.97;;;-0.40;78.60;;;;;;4883253;29;20390;-87
2021/03/07 21:43:06;;;;;;;14.50;6.53;;;-0.50;78.50;;;;;;4883391;29;20069;-87
2021/03/07 21:48:55;;;;;;;17.00;7.43;;;-0.60;78.50;;;;;;4883476;29;20099;-87
2021/03/07 21:54:43;;;;;;;15.38;6.43;;;-0.80;78.50;;;;;;4883388;29;20048;-87
2021/03/07 22:00:32;;;;;;;15.75;6.03;;;-0.90;78.50;;;;;;4883262;29;20040;-87
2021/03/07 22:10:16;;;;;;;12.63;6.05;;;-1.00;78.60;;;;;;4883530;29;20509;-89
2021/03/07 22:16:04;;;;;;;18.63;7.55;;;-1.10;78.70;;;;;;4884216;29;20037;-89
2021/03/07 22:21:53;;;;;;;15.50;7.05;;;-1.20;78.50;;;;;;4884138;29;20047;-90
2021/03/07 22:27:41;;;;;;;14.45;6.05;;;-1.40;78.40;;;;;;4883073;29;20048;-90
2021/03/07 22:33:29;;;;;;;14.07;5.93;;;-1.40;78.50;;;;;;4883058;29;20501;-90
2021/03/07 22:39:19;;;;;;;14.85;6.97;;;-1.50;78.60;;;;;;4882125;29;20036;-90
2021/03/07 22:45:08;;;;;;;18.33;7.65;;;-1.60;78.50;;;;;;4882899;29;20039;-91
2021/03/07 22:50:55;;;;;;;13.50;6.78;;;-1.70;78.60;;;;;;4882708;29;20048;-90
2021/03/07 22:56:43;;;;;;;15.40;7.10;;;-1.80;78.50;;;;;;4882623;29;20040;-89
2021/03/07 23:02:32;;;;;;;14.93;6.97;;;-1.90;78.50;;;;;;4882875;29;20095;-89
2021/03/07 23:12:14;;;;;;;16.38;6.90;;;-2.00;78.40;;;;;;4882549;29;20040;-91
2021/03/07 23:18:27;;;;;;;17.30;7.75;;;-2.10;78.50;;;;;;4882105;29;20433;-89
2021/03/07 23:24:16;;;;;;;16.55;7.35;;;-2.20;78.50;;;;;;4881823;29;20036;-89
2021/03/07 23:30:12;;;;;;;15.30;6.72;;;-2.20;78.70;;;;;;4882001;29;20447;-89
2021/03/07 23:36:00;;;;;;;16.00;7.07;;;-2.30;78.60;;;;;;4881470;29;20126;-88
2021/03/07 23:41:48;;;;;;;13.20;6.78;;;-2.30;78.50;;;;;;4881555;29;20534;-89
2021/03/07 23:47:38;;;;;;;17.38;7.15;;;-2.40;78.50;;;;;;4881021;29;20052;-87
2021/03/07 23:53:26;;;;;;;17.70;7.60;;;-2.50;78.60;;;;;;4881149;29;20420;-88
2021/03/07 23:59:15;;;;;;;19.00;8.18;;;-2.50;78.50;;;;;;4881133;29;20043;-87
